sensor_id;sensor_type;location;lat;lon;timestamp;temperature;humidity
10390;DHT22;5241;47.830;12.972;2023-06-10T00:01:21;14.50;99.90
10390;DHT22;5241;47.830;12.972;2023-06-10T00:03:50;14.60;99.90
10390;DHT22;5241;47.830;12.972;2023-06-10T00:06:15;14.70;99.90
10390;DHT22;5241;47.830;12.972;2023-06-10T00:08:41;14.80;99.90
10390;DHT22;5241;47.830;12.972;2023-06-10T00:11:07;14.70;99.90
10390;DHT22;5241;47.830;12.972;2023-06-10T00:13:33;14.60;99.90
10390;DHT22;5241;47.830;12.972;2023-06-10T00:15:58;14.60;99.90
10390;DHT22;5241;47.830;12.972;2023-06-10T00:18:24;14.40;99.90
10390;DHT22;5241;47.830;12.972;2023-06-10T00:20:52;14.40;99.90
10390;DHT22;5241;47.830;12.972;2023-06-10T00:23:21;14.20;99.90
10390;DHT22;5241;47.830;12.972;2023-06-10T00:25:46;14.20;99.90
10390;DHT22;5241;47.830;12.972;2023-06-10T00:28:12;14.10;99.90
10390;DHT22;5241;47.830;12.972;2023-06-10T00:30:38;14.20;99.90
10390;DHT22;5241;47.830;12.972;2023-06-10T00:33:04;14.10;99.90
10390;DHT22;5241;47.830;12.972;2023-06-10T00:35:30;14.10;99.90
10390;DHT22;5241;47.830;12.972;2023-06-10T00:37:55;14.10;99.90
10390;DHT22;5241;47.830;12.972;2023-06-10T00:40:21;14.00;99.90
10390;DHT22;5241;47.830;12.972;2023-06-10T00:42:46;14.10;99.90
10390;DHT22;5241;47.830;12.972;2023-06-10T00:45:12;14.20;99.90
10390;DHT22;5241;47.830;12.972;2023-06-10T00:47:38;14.20;99.90
10390;DHT22;5241;47.830;12.972;2023-06-10T00:50:05;14.10;99.90
10390;DHT22;5241;47.830;12.972;2023-06-10T00:52:31;14.00;99.90
10390;DHT22;5241;47.830;12.972;2023-06-10T00:54:56;13.90;99.90
10390;DHT22;5241;47.830;12.972;2023-06-10T00:57:22;14.00;99.90
10390;DHT22;5241;47.830;12.972;2023-06-10T00:59:48;14.00;99.90
10390;DHT22;5241;47.830;12.972;2023-06-10T01:02:15;14.10;99.90
10390;DHT22;5241;47.830;12.972;2023-06-10T01:04:40;14.10;99.90
10390;DHT22;5241;47.830;12.972;2023-06-10T01:12:20;14.10;99.90
10390;DHT22;5241;47.830;12.972;2023-06-10T01:14:49;14.10;99.90
10390;DHT22;5241;47.830;12.972;2023-06-10T01:17:17;14.00;99.90
10390;DHT22;5241;47.830;12.972;2023-06-10T01:19:43;14.00;99.90
10390;DHT22;5241;47.830;12.972;2023-06-10T01:22:09;14.00;99.90
10390;DHT22;5241;47.830;12.972;2023-06-10T01:24:36;14.00;99.90
10390;DHT22;5241;47.830;12.972;2023-06-10T01:27:05;14.00;99.90
10390;DHT22;5241;47.830;12.972;2023-06-10T01:29:41;14.00;99.90
10390;DHT22;5241;47.830;12.972;2023-06-10T01:32:18;13.90;99.90
10390;DHT22;5241;47.830;12.972;2023-06-10T01:34:47;13.90;99.90
10390;DHT22;5241;47.830;12.972;2023-06-10T01:37:17;13.80;99.90
10390;DHT22;5241;47.830;12.972;2023-06-10T01:39:45;13.80;99.90
10390;DHT22;5241;47.830;12.972;2023-06-10T01:42:12;13.80;99.90
10390;DHT22;5241;47.830;12.972;2023-06-10T01:44:39;13.70;99.90
10390;DHT22;5241;47.830;12.972;2023-06-10T01:47:04;13.70;99.90
10390;DHT22;5241;47.830;12.972;2023-06-10T01:49:30;13.70;99.90
10390;DHT22;5241;47.830;12.972;2023-06-10T01:51:55;13.60;99.90
10390;DHT22;5241;47.830;12.972;2023-06-10T01:54:21;13.60;99.90
10390;DHT22;5241;47.830;12.972;2023-06-10T01:56:47;13.50;99.90
10390;DHT22;5241;47.830;12.972;2023-06-10T01:59:12;13.40;99.90
10390;DHT22;5241;47.830;12.972;2023-06-10T02:01:38;13.30;99.90
10390;DHT22;5241;47.830;12.972;2023-06-10T02:04:03;13.20;99.90
10390;DHT22;5241;47.830;12.972;2023-06-10T02:06:29;13.20;99.90
10390;DHT22;5241;47.830;12.972;2023-06-10T02:08:54;13.20;99.90
10390;DHT22;5241;47.830;12.972;2023-06-10T02:11:20;13.20;99.90
10390;DHT22;5241;47.830;12.972;2023-06-10T02:13:45;13.20;99.90
10390;DHT22;5241;47.830;12.972;2023-06-10T02:16:11;13.10;99.90
10390;DHT22;5241;47.830;12.972;2023-06-10T02:18:38;13.10;99.90
10390;DHT22;5241;47.830;12.972;2023-06-10T02:21:06;13.10;99.90
10390;DHT22;5241;47.830;12.972;2023-06-10T02:23:32;13.10;99.90
10390;DHT22;5241;47.830;12.972;2023-06-10T02:25:57;13.00;99.90
10390;DHT22;5241;47.830;12.972;2023-06-10T02:28:23;13.00;99.90
10390;DHT22;5241;47.830;12.972;2023-06-10T02:30:48;12.90;99.90
10390;DHT22;5241;47.830;12.972;2023-06-10T02:33:14;12.90;99.90
10390;DHT22;5241;47.830;12.972;2023-06-10T02:35:40;12.90;99.90
10390;DHT22;5241;47.830;12.972;2023-06-10T02:38:06;12.80;99.90
10390;DHT22;5241;47.830;12.972;2023-06-10T02:40:32;12.70;99.90
10390;DHT22;5241;47.830;12.972;2023-06-10T02:42:58;12.70;99.90
10390;DHT22;5241;47.830;12.972;2023-06-10T02:45:24;12.60;99.90
10390;DHT22;5241;47.830;12.972;2023-06-10T02:47:50;12.60;99.90
10390;DHT22;5241;47.830;12.972;2023-06-10T02:50:15;12.60;99.90
10390;DHT22;5241;47.830;12.972;2023-06-10T02:52:41;12.60;99.90
10390;DHT22;5241;47.830;12.972;2023-06-10T02:55:07;12.50;99.90
10390;DHT22;5241;47.830;12.972;2023-06-10T02:57:32;12.50;99.90
10390;DHT22;5241;47.830;12.972;2023-06-10T02:59:58;12.50;99.90
10390;DHT22;5241;47.830;12.972;2023-06-10T03:02:25;12.40;99.90
10390;DHT22;5241;47.830;12.972;2023-06-10T03:04:55;12.40;99.90
10390;DHT22;5241;47.830;12.972;2023-06-10T03:07:21;12.50;99.90
10390;DHT22;5241;47.830;12.972;2023-06-10T03:09:46;12.60;99.90
10390;DHT22;5241;47.830;12.972;2023-06-10T03:12:12;12.60;99.90
10390;DHT22;5241;47.830;12.972;2023-06-10T03:14:38;12.70;99.90
10390;DHT22;5241;47.830;12.972;2023-06-10T03:17:04;12.60;99.90
10390;DHT22;5241;47.830;12.972;2023-06-10T03:19:30;12.70;99.90
10390;DHT22;5241;47.830;12.972;2023-06-10T03:22:13;12.70;99.90
10390;DHT22;5241;47.830;12.972;2023-06-10T03:24:38;12.60;99.90
10390;DHT22;5241;47.830;12.972;2023-06-10T03:27:08;12.60;99.90
10390;DHT22;5241;47.830;12.972;2023-06-10T03:29:37;12.50;99.90
10390;DHT22;5241;47.830;12.972;2023-06-10T03:32:03;12.60;99.90
10390;DHT22;5241;47.830;12.972;2023-06-10T03:34:29;12.60;99.90
10390;DHT22;5241;47.830;12.972;2023-06-10T03:36:55;12.70;99.90
10390;DHT22;5241;47.830;12.972;2023-06-10T03:39:21;12.80;99.90
10390;DHT22;5241;47.830;12.972;2023-06-10T03:41:48;12.70;99.90
10390;DHT22;5241;47.830;12.972;2023-06-10T03:44:14;12.70;99.90
10390;DHT22;5241;47.830;12.972;2023-06-10T03:46:40;12.70;99.90
10390;DHT22;5241;47.830;12.972;2023-06-10T03:49:06;12.80;99.90
10390;DHT22;5241;47.830;12.972;2023-06-10T03:51:31;12.70;99.90
10390;DHT22;5241;47.830;12.972;2023-06-10T03:53:57;12.80;99.90
10390;DHT22;5241;47.830;12.972;2023-06-10T03:56:23;13.00;99.90
10390;DHT22;5241;47.830;12.972;2023-06-10T03:58:48;13.10;99.90
10390;DHT22;5241;47.830;12.972;2023-06-10T04:01:14;13.20;99.90
10390;DHT22;5241;47.830;12.972;2023-06-10T04:03:39;13.10;99.90
10390;DHT22;5241;47.830;12.972;2023-06-10T04:06:07;13.10;99.90
10390;DHT22;5241;47.830;12.972;2023-06-10T04:08:33;13.20;99.90
10390;DHT22;5241;47.830;12.972;2023-06-10T04:10:58;13.20;99.90
10390;DHT22;5241;47.830;12.972;2023-06-10T04:13:24;13.20;99.90
10390;DHT22;5241;47.830;12.972;2023-06-10T04:15:50;13.10;99.90
10390;DHT22;5241;47.830;12.972;2023-06-10T04:18:16;13.10;99.90
10390;DHT22;5241;47.830;12.972;2023-06-10T04:20:42;13.20;99.90
10390;DHT22;5241;47.830;12.972;2023-06-10T04:23:07;13.20;99.90
10390;DHT22;5241;47.830;12.972;2023-06-10T04:25:33;13.20;99.90
10390;DHT22;5241;47.830;12.972;2023-06-10T04:27:59;13.30;99.90
10390;DHT22;5241;47.830;12.972;2023-06-10T04:30:24;13.30;99.90
10390;DHT22;5241;47.830;12.972;2023-06-10T04:32:50;13.40;99.90
10390;DHT22;5241;47.830;12.972;2023-06-10T04:35:16;13.50;99.90
10390;DHT22;5241;47.830;12.972;2023-06-10T04:37:41;13.80;99.90
10390;DHT22;5241;47.830;12.972;2023-06-10T04:40:08;13.90;99.90
10390;DHT22;5241;47.830;12.972;2023-06-10T04:42:34;13.90;99.90
10390;DHT22;5241;47.830;12.972;2023-06-10T04:45:00;14.00;99.90
10390;DHT22;5241;47.830;12.972;2023-06-10T04:47:26;14.20;99.90
10390;DHT22;5241;47.830;12.972;2023-06-10T04:49:52;14.30;99.90
10390;DHT22;5241;47.830;12.972;2023-06-10T04:52:17;14.30;99.90
10390;DHT22;5241;47.830;12.972;2023-06-10T04:54:43;14.30;99.90
10390;DHT22;5241;47.830;12.972;2023-06-10T04:57:09;14.30;99.90
10390;DHT22;5241;47.830;12.972;2023-06-10T04:59:34;14.40;99.90
10390;DHT22;5241;47.830;12.972;2023-06-10T05:02:07;14.70;99.90
10390;DHT22;5241;47.830;12.972;2023-06-10T05:04:32;14.80;99.90
10390;DHT22;5241;47.830;12.972;2023-06-10T05:06:58;14.90;99.90
10390;DHT22;5241;47.830;12.972;2023-06-10T05:09:23;15.00;99.90
10390;DHT22;5241;47.830;12.972;2023-06-10T05:11:49;15.00;99.90
10390;DHT22;5241;47.830;12.972;2023-06-10T05:14:14;15.00;99.90
10390;DHT22;5241;47.830;12.972;2023-06-10T05:16:42;15.10;99.90
10390;DHT22;5241;47.830;12.972;2023-06-10T05:19:08;15.20;99.90
10390;DHT22;5241;47.830;12.972;2023-06-10T05:21:34;15.40;99.90
10390;DHT22;5241;47.830;12.972;2023-06-10T05:23:59;15.60;99.90
10390;DHT22;5241;47.830;12.972;2023-06-10T05:26:25;15.60;99.90
10390;DHT22;5241;47.830;12.972;2023-06-10T05:28:50;15.70;99.90
10390;DHT22;5241;47.830;12.972;2023-06-10T05:31:16;15.90;99.90
10390;DHT22;5241;47.830;12.972;2023-06-10T05:33:41;16.40;99.90
10390;DHT22;5241;47.830;12.972;2023-06-10T05:36:07;16.60;99.90
10390;DHT22;5241;47.830;12.972;2023-06-10T05:38:32;16.60;99.90
10390;DHT22;5241;47.830;12.972;2023-06-10T05:40:58;16.80;99.90
10390;DHT22;5241;47.830;12.972;2023-06-10T05:43:24;17.20;99.90
10390;DHT22;5241;47.830;12.972;2023-06-10T05:45:50;17.80;99.90
10390;DHT22;5241;47.830;12.972;2023-06-10T05:48:15;18.60;99.90
10390;DHT22;5241;47.830;12.972;2023-06-10T05:50:41;19.70;99.90
10390;DHT22;5241;47.830;12.972;2023-06-10T05:53:08;20.30;99.90
10390;DHT22;5241;47.830;12.972;2023-06-10T05:55:43;20.60;99.90
10390;DHT22;5241;47.830;12.972;2023-06-10T05:58:09;20.40;99.90
10390;DHT22;5241;47.830;12.972;2023-06-10T06:00:35;20.70;99.90
10390;DHT22;5241;47.830;12.972;2023-06-10T06:03:00;21.20;99.90
10390;DHT22;5241;47.830;12.972;2023-06-10T06:05:26;21.70;99.90
10390;DHT22;5241;47.830;12.972;2023-06-10T06:07:52;21.80;99.90
10390;DHT22;5241;47.830;12.972;2023-06-10T06:10:18;22.30;99.20
10390;DHT22;5241;47.830;12.972;2023-06-10T06:12:44;22.70;97.70
10390;DHT22;5241;47.830;12.972;2023-06-10T06:15:10;22.30;98.40
10390;DHT22;5241;47.830;12.972;2023-06-10T06:17:36;22.90;98.00
10390;DHT22;5241;47.830;12.972;2023-06-10T06:20:03;23.20;96.40
10390;DHT22;5241;47.830;12.972;2023-06-10T06:22:28;23.50;95.90
10390;DHT22;5241;47.830;12.972;2023-06-10T06:24:54;24.00;95.00
10390;DHT22;5241;47.830;12.972;2023-06-10T06:27:19;23.40;95.00
10390;DHT22;5241;47.830;12.972;2023-06-10T06:29:46;23.40;95.20
10390;DHT22;5241;47.830;12.972;2023-06-10T06:32:12;23.30;95.30
10390;DHT22;5241;47.830;12.972;2023-06-10T06:34:37;23.00;95.20
10390;DHT22;5241;47.830;12.972;2023-06-10T06:37:03;22.40;96.80
10390;DHT22;5241;47.830;12.972;2023-06-10T06:39:28;23.00;96.00
10390;DHT22;5241;47.830;12.972;2023-06-10T06:41:54;22.70;96.40
10390;DHT22;5241;47.830;12.972;2023-06-10T06:44:20;23.80;93.50
10390;DHT22;5241;47.830;12.972;2023-06-10T06:46:45;24.10;92.10
10390;DHT22;5241;47.830;12.972;2023-06-10T06:49:11;24.20;91.50
10390;DHT22;5241;47.830;12.972;2023-06-10T06:51:36;24.30;91.70
10390;DHT22;5241;47.830;12.972;2023-06-10T06:54:02;24.30;91.10
10390;DHT22;5241;47.830;12.972;2023-06-10T06:56:28;24.10;91.80
10390;DHT22;5241;47.830;12.972;2023-06-10T06:58:53;24.70;90.50
10390;DHT22;5241;47.830;12.972;2023-06-10T07:01:19;25.00;89.30
10390;DHT22;5241;47.830;12.972;2023-06-10T07:03:45;25.20;86.40
10390;DHT22;5241;47.830;12.972;2023-06-10T07:06:10;25.20;87.20
10390;DHT22;5241;47.830;12.972;2023-06-10T07:08:36;24.80;88.10
10390;DHT22;5241;47.830;12.972;2023-06-10T07:11:01;23.90;90.20
10390;DHT22;5241;47.830;12.972;2023-06-10T07:13:27;22.80;92.20
10390;DHT22;5241;47.830;12.972;2023-06-10T07:15:52;21.80;94.30
10390;DHT22;5241;47.830;12.972;2023-06-10T07:18:18;21.70;94.80
10390;DHT22;5241;47.830;12.972;2023-06-10T07:20:44;21.40;95.70
10390;DHT22;5241;47.830;12.972;2023-06-10T07:23:09;20.90;97.20
10390;DHT22;5241;47.830;12.972;2023-06-10T07:25:35;21.70;97.10
10390;DHT22;5241;47.830;12.972;2023-06-10T07:28:01;22.20;96.00
10390;DHT22;5241;47.830;12.972;2023-06-10T07:30:27;22.40;96.20
10390;DHT22;5241;47.830;12.972;2023-06-10T07:32:53;22.80;95.60
10390;DHT22;5241;47.830;12.972;2023-06-10T07:35:18;23.40;95.60
10390;DHT22;5241;47.830;12.972;2023-06-10T07:37:44;24.30;94.30
10390;DHT22;5241;47.830;12.972;2023-06-10T07:40:10;24.30;93.50
10390;DHT22;5241;47.830;12.972;2023-06-10T07:42:36;24.30;93.20
10390;DHT22;5241;47.830;12.972;2023-06-10T07:45:02;24.20;93.70
10390;DHT22;5241;47.830;12.972;2023-06-10T07:47:29;24.40;93.60
10390;DHT22;5241;47.830;12.972;2023-06-10T07:49:54;24.00;93.70
10390;DHT22;5241;47.830;12.972;2023-06-10T07:52:20;25.10;93.00
10390;DHT22;5241;47.830;12.972;2023-06-10T07:54:45;25.20;92.20
10390;DHT22;5241;47.830;12.972;2023-06-10T07:57:11;25.50;91.50
10390;DHT22;5241;47.830;12.972;2023-06-10T07:59:37;26.20;91.80
10390;DHT22;5241;47.830;12.972;2023-06-10T08:02:03;25.90;90.90
10390;DHT22;5241;47.830;12.972;2023-06-10T08:04:29;25.10;92.90
10390;DHT22;5241;47.830;12.972;2023-06-10T08:06:56;26.00;92.30
10390;DHT22;5241;47.830;12.972;2023-06-10T08:09:21;26.20;91.60
10390;DHT22;5241;47.830;12.972;2023-06-10T08:11:48;26.00;91.80
10390;DHT22;5241;47.830;12.972;2023-06-10T08:14:14;25.10;92.30
10390;DHT22;5241;47.830;12.972;2023-06-10T08:16:40;25.40;92.50
10390;DHT22;5241;47.830;12.972;2023-06-10T08:19:05;25.50;92.30
10390;DHT22;5241;47.830;12.972;2023-06-10T08:21:31;25.80;92.30
10390;DHT22;5241;47.830;12.972;2023-06-10T08:23:56;26.10;91.80
10390;DHT22;5241;47.830;12.972;2023-06-10T08:26:23;25.80;91.70
10390;DHT22;5241;47.830;12.972;2023-06-10T08:28:48;26.20;91.20
10390;DHT22;5241;47.830;12.972;2023-06-10T08:31:14;25.80;92.20
10390;DHT22;5241;47.830;12.972;2023-06-10T08:33:42;25.20;93.00
10390;DHT22;5241;47.830;12.972;2023-06-10T08:36:07;25.60;92.20
10390;DHT22;5241;47.830;12.972;2023-06-10T08:38:33;25.30;92.50
10390;DHT22;5241;47.830;12.972;2023-06-10T08:40:59;25.00;93.40
10390;DHT22;5241;47.830;12.972;2023-06-10T08:43:29;25.00;92.80
10390;DHT22;5241;47.830;12.972;2023-06-10T08:46:00;25.70;92.50
10390;DHT22;5241;47.830;12.972;2023-06-10T08:48:29;25.30;92.70
10390;DHT22;5241;47.830;12.972;2023-06-10T08:50:57;25.90;92.90
10390;DHT22;5241;47.830;12.972;2023-06-10T08:53:24;25.80;92.90
10390;DHT22;5241;47.830;12.972;2023-06-10T08:55:51;26.40;90.70
10390;DHT22;5241;47.830;12.972;2023-06-10T08:58:20;26.20;90.80
10390;DHT22;5241;47.830;12.972;2023-06-10T09:00:46;25.60;92.60
10390;DHT22;5241;47.830;12.972;2023-06-10T09:03:11;25.80;92.60
10390;DHT22;5241;47.830;12.972;2023-06-10T09:05:38;25.40;92.80
10390;DHT22;5241;47.830;12.972;2023-06-10T09:08:06;25.30;93.20
10390;DHT22;5241;47.830;12.972;2023-06-10T09:10:32;25.70;93.00
10390;DHT22;5241;47.830;12.972;2023-06-10T09:12:58;26.20;92.70
10390;DHT22;5241;47.830;12.972;2023-06-10T09:15:24;27.50;90.60
10390;DHT22;5241;47.830;12.972;2023-06-10T09:17:49;27.20;90.40
10390;DHT22;5241;47.830;12.972;2023-06-10T09:20:16;27.00;90.10
10390;DHT22;5241;47.830;12.972;2023-06-10T09:22:42;27.10;89.90
10390;DHT22;5241;47.830;12.972;2023-06-10T09:25:12;26.80;90.10
10390;DHT22;5241;47.830;12.972;2023-06-10T09:27:48;26.80;90.80
10390;DHT22;5241;47.830;12.972;2023-06-10T09:30:29;27.30;88.40
10390;DHT22;5241;47.830;12.972;2023-06-10T09:32:55;26.80;87.40
10390;DHT22;5241;47.830;12.972;2023-06-10T09:35:23;27.20;86.10
10390;DHT22;5241;47.830;12.972;2023-06-10T09:37:52;27.20;86.10
10390;DHT22;5241;47.830;12.972;2023-06-10T09:40:17;27.40;85.70
10390;DHT22;5241;47.830;12.972;2023-06-10T09:42:43;26.90;89.80
10390;DHT22;5241;47.830;12.972;2023-06-10T09:45:09;27.30;85.50
10390;DHT22;5241;47.830;12.972;2023-06-10T09:47:35;27.60;85.80
10390;DHT22;5241;47.830;12.972;2023-06-10T09:50:00;28.00;81.20
10390;DHT22;5241;47.830;12.972;2023-06-10T09:52:28;28.10;79.80
10390;DHT22;5241;47.830;12.972;2023-06-10T09:54:59;28.00;81.60
10390;DHT22;5241;47.830;12.972;2023-06-10T09:57:26;27.90;81.90
10390;DHT22;5241;47.830;12.972;2023-06-10T09:59:55;28.00;78.30
10390;DHT22;5241;47.830;12.972;2023-06-10T10:02:21;27.90;78.80
10390;DHT22;5241;47.830;12.972;2023-06-10T10:04:46;28.60;75.70
10390;DHT22;5241;47.830;12.972;2023-06-10T10:07:13;28.40;75.10
10390;DHT22;5241;47.830;12.972;2023-06-10T10:09:40;28.10;75.50
10390;DHT22;5241;47.830;12.972;2023-06-10T10:12:09;28.60;73.30
10390;DHT22;5241;47.830;12.972;2023-06-10T10:14:36;28.50;72.90
10390;DHT22;5241;47.830;12.972;2023-06-10T10:17:04;29.10;73.00
10390;DHT22;5241;47.830;12.972;2023-06-10T10:19:32;29.00;72.20
10390;DHT22;5241;47.830;12.972;2023-06-10T10:22:08;29.20;72.40
10390;DHT22;5241;47.830;12.972;2023-06-10T10:24:38;29.80;69.70
10390;DHT22;5241;47.830;12.972;2023-06-10T10:27:13;29.70;68.60
10390;DHT22;5241;47.830;12.972;2023-06-10T10:29:45;29.90;68.10
10390;DHT22;5241;47.830;12.972;2023-06-10T10:32:12;29.60;69.40
10390;DHT22;5241;47.830;12.972;2023-06-10T10:34:59;29.60;69.20
10390;DHT22;5241;47.830;12.972;2023-06-10T10:37:26;29.00;70.30
10390;DHT22;5241;47.830;12.972;2023-06-10T10:39:52;28.70;70.60
10390;DHT22;5241;47.830;12.972;2023-06-10T10:42:19;29.40;71.30
10390;DHT22;5241;47.830;12.972;2023-06-10T10:44:44;29.20;69.10
10390;DHT22;5241;47.830;12.972;2023-06-10T10:47:11;30.00;69.80
10390;DHT22;5241;47.830;12.972;2023-06-10T10:49:38;30.50;67.30
10390;DHT22;5241;47.830;12.972;2023-06-10T10:52:04;30.90;65.00
10390;DHT22;5241;47.830;12.972;2023-06-10T10:54:36;31.00;63.60
10390;DHT22;5241;47.830;12.972;2023-06-10T10:59:44;31.20;64.50
10390;DHT22;5241;47.830;12.972;2023-06-10T11:02:09;30.50;64.30
10390;DHT22;5241;47.830;12.972;2023-06-10T11:04:35;29.70;66.00
10390;DHT22;5241;47.830;12.972;2023-06-10T11:07:07;29.10;64.30
10390;DHT22;5241;47.830;12.972;2023-06-10T11:09:33;28.10;67.80
10390;DHT22;5241;47.830;12.972;2023-06-10T11:11:59;27.50;69.90
10390;DHT22;5241;47.830;12.972;2023-06-10T11:14:28;27.30;70.90
10390;DHT22;5241;47.830;12.972;2023-06-10T11:16:57;26.90;72.80
10390;DHT22;5241;47.830;12.972;2023-06-10T11:19:36;27.60;71.30
10390;DHT22;5241;47.830;12.972;2023-06-10T11:22:07;27.60;69.60
10390;DHT22;5241;47.830;12.972;2023-06-10T11:24:33;27.50;70.90
10390;DHT22;5241;47.830;12.972;2023-06-10T11:27:18;27.40;68.20
10390;DHT22;5241;47.830;12.972;2023-06-10T11:30:20;27.90;70.50
10390;DHT22;5241;47.830;12.972;2023-06-10T11:32:51;29.20;67.20
10390;DHT22;5241;47.830;12.972;2023-06-10T11:35:19;29.50;65.70
10390;DHT22;5241;47.830;12.972;2023-06-10T11:37:45;28.90;65.60
10390;DHT22;5241;47.830;12.972;2023-06-10T11:40:11;28.20;68.70
10390;DHT22;5241;47.830;12.972;2023-06-10T11:42:40;27.50;68.60
10390;DHT22;5241;47.830;12.972;2023-06-10T11:45:07;26.50;71.20
10390;DHT22;5241;47.830;12.972;2023-06-10T11:47:33;26.30;72.00
10390;DHT22;5241;47.830;12.972;2023-06-10T11:49:59;25.90;74.20
10390;DHT22;5241;47.830;12.972;2023-06-10T11:52:31;26.10;73.50
10390;DHT22;5241;47.830;12.972;2023-06-10T11:54:59;27.00;72.00
10390;DHT22;5241;47.830;12.972;2023-06-10T11:57:24;27.40;70.30
10390;DHT22;5241;47.830;12.972;2023-06-10T11:59:50;27.80;70.60
10390;DHT22;5241;47.830;12.972;2023-06-10T12:02:17;28.80;68.50
10390;DHT22;5241;47.830;12.972;2023-06-10T12:04:42;28.90;67.30
10390;DHT22;5241;47.830;12.972;2023-06-10T12:07:08;29.70;65.90
10390;DHT22;5241;47.830;12.972;2023-06-10T12:09:33;29.40;65.20
10390;DHT22;5241;47.830;12.972;2023-06-10T12:12:01;28.80;65.50
10390;DHT22;5241;47.830;12.972;2023-06-10T12:14:50;28.30;67.10
10390;DHT22;5241;47.830;12.972;2023-06-10T12:17:17;27.90;67.80
10390;DHT22;5241;47.830;12.972;2023-06-10T12:19:42;27.40;69.70
10390;DHT22;5241;47.830;12.972;2023-06-10T12:22:08;27.10;69.20
10390;DHT22;5241;47.830;12.972;2023-06-10T12:24:44;26.90;70.20
10390;DHT22;5241;47.830;12.972;2023-06-10T12:27:12;27.10;72.50
10390;DHT22;5241;47.830;12.972;2023-06-10T12:29:38;27.30;70.90
10390;DHT22;5241;47.830;12.972;2023-06-10T12:32:04;27.20;71.00
10390;DHT22;5241;47.830;12.972;2023-06-10T12:34:36;27.00;71.60
10390;DHT22;5241;47.830;12.972;2023-06-10T12:37:04;26.90;72.90
10390;DHT22;5241;47.830;12.972;2023-06-10T12:39:31;26.50;72.00
10390;DHT22;5241;47.830;12.972;2023-06-10T12:41:57;26.30;70.60
10390;DHT22;5241;47.830;12.972;2023-06-10T12:44:30;26.20;72.00
10390;DHT22;5241;47.830;12.972;2023-06-10T12:46:56;26.10;72.70
10390;DHT22;5241;47.830;12.972;2023-06-10T12:49:22;25.80;75.80
10390;DHT22;5241;47.830;12.972;2023-06-10T12:51:48;25.80;76.60
10390;DHT22;5241;47.830;12.972;2023-06-10T12:54:13;25.60;78.40
10390;DHT22;5241;47.830;12.972;2023-06-10T12:56:39;25.40;79.40
10390;DHT22;5241;47.830;12.972;2023-06-10T12:59:05;25.20;80.20
10390;DHT22;5241;47.830;12.972;2023-06-10T13:01:31;25.10;80.40
10390;DHT22;5241;47.830;12.972;2023-06-10T13:03:57;25.00;81.80
10390;DHT22;5241;47.830;12.972;2023-06-10T13:06:23;25.10;81.90
10390;DHT22;5241;47.830;12.972;2023-06-10T13:08:48;24.90;81.50
10390;DHT22;5241;47.830;12.972;2023-06-10T13:11:14;24.80;82.40
10390;DHT22;5241;47.830;12.972;2023-06-10T13:13:39;24.70;82.20
10390;DHT22;5241;47.830;12.972;2023-06-10T13:16:05;24.50;81.90
10390;DHT22;5241;47.830;12.972;2023-06-10T13:18:32;24.40;82.60
10390;DHT22;5241;47.830;12.972;2023-06-10T13:21:03;24.40;83.00
10390;DHT22;5241;47.830;12.972;2023-06-10T13:23:28;24.40;84.20
10390;DHT22;5241;47.830;12.972;2023-06-10T13:25:54;24.40;85.00
10390;DHT22;5241;47.830;12.972;2023-06-10T13:28:21;24.30;86.10
10390;DHT22;5241;47.830;12.972;2023-06-10T13:30:46;24.20;86.80
10390;DHT22;5241;47.830;12.972;2023-06-10T13:33:12;24.30;86.90
10390;DHT22;5241;47.830;12.972;2023-06-10T13:35:37;24.30;87.30
10390;DHT22;5241;47.830;12.972;2023-06-10T13:38:03;24.30;88.00
10390;DHT22;5241;47.830;12.972;2023-06-10T13:40:29;24.20;88.40
10390;DHT22;5241;47.830;12.972;2023-06-10T13:42:55;24.30;89.00
10390;DHT22;5241;47.830;12.972;2023-06-10T13:45:20;24.40;89.20
10390;DHT22;5241;47.830;12.972;2023-06-10T13:47:46;24.60;88.40
10390;DHT22;5241;47.830;12.972;2023-06-10T13:50:12;24.50;89.40
10390;DHT22;5241;47.830;12.972;2023-06-10T13:52:38;25.00;88.60
10390;DHT22;5241;47.830;12.972;2023-06-10T13:55:04;25.60;87.00
10390;DHT22;5241;47.830;12.972;2023-06-10T13:57:30;26.80;82.70
10390;DHT22;5241;47.830;12.972;2023-06-10T13:59:55;27.60;76.90
10390;DHT22;5241;47.830;12.972;2023-06-10T14:02:22;27.90;74.00
10390;DHT22;5241;47.830;12.972;2023-06-10T14:04:47;28.10;74.20
10390;DHT22;5241;47.830;12.972;2023-06-10T14:07:13;27.90;72.90
10390;DHT22;5241;47.830;12.972;2023-06-10T14:09:38;27.50;74.70
10390;DHT22;5241;47.830;12.972;2023-06-10T14:12:04;27.50;75.00
10390;DHT22;5241;47.830;12.972;2023-06-10T14:14:30;27.50;75.60
10390;DHT22;5241;47.830;12.972;2023-06-10T14:16:58;28.00;73.70
10390;DHT22;5241;47.830;12.972;2023-06-10T14:19:24;28.60;71.20
10390;DHT22;5241;47.830;12.972;2023-06-10T14:21:50;29.10;69.00
10390;DHT22;5241;47.830;12.972;2023-06-10T14:24:15;28.50;70.00
10390;DHT22;5241;47.830;12.972;2023-06-10T14:26:41;27.80;70.10
10390;DHT22;5241;47.830;12.972;2023-06-10T14:29:06;27.50;72.20
10390;DHT22;5241;47.830;12.972;2023-06-10T14:31:32;27.30;71.60
10390;DHT22;5241;47.830;12.972;2023-06-10T14:33:58;26.90;73.50
10390;DHT22;5241;47.830;12.972;2023-06-10T14:36:23;26.90;73.80
10390;DHT22;5241;47.830;12.972;2023-06-10T14:38:49;26.70;75.50
10390;DHT22;5241;47.830;12.972;2023-06-10T14:41:15;26.20;80.60
10390;DHT22;5241;47.830;12.972;2023-06-10T14:43:40;25.60;83.30
10390;DHT22;5241;47.830;12.972;2023-06-10T14:46:06;25.00;85.40
10390;DHT22;5241;47.830;12.972;2023-06-10T14:48:32;24.30;87.80
10390;DHT22;5241;47.830;12.972;2023-06-10T14:50:57;23.90;89.20
10390;DHT22;5241;47.830;12.972;2023-06-10T14:53:23;23.90;90.00
10390;DHT22;5241;47.830;12.972;2023-06-10T14:55:48;23.90;90.70
10390;DHT22;5241;47.830;12.972;2023-06-10T14:58:14;23.90;90.70
10390;DHT22;5241;47.830;12.972;2023-06-10T15:00:39;23.70;91.50
10390;DHT22;5241;47.830;12.972;2023-06-10T15:03:05;23.70;91.80
10390;DHT22;5241;47.830;12.972;2023-06-10T15:05:30;23.50;91.90
10390;DHT22;5241;47.830;12.972;2023-06-10T15:07:56;23.60;91.90
10390;DHT22;5241;47.830;12.972;2023-06-10T15:10:22;24.00;91.10
10390;DHT22;5241;47.830;12.972;2023-06-10T15:12:48;23.90;91.60
10390;DHT22;5241;47.830;12.972;2023-06-10T15:15:20;23.90;91.20
10390;DHT22;5241;47.830;12.972;2023-06-10T15:17:46;23.90;91.20
10390;DHT22;5241;47.830;12.972;2023-06-10T15:20:11;23.70;90.80
10390;DHT22;5241;47.830;12.972;2023-06-10T15:22:37;23.40;91.30
10390;DHT22;5241;47.830;12.972;2023-06-10T15:25:03;23.20;92.30
10390;DHT22;5241;47.830;12.972;2023-06-10T15:27:28;23.10;92.70
10390;DHT22;5241;47.830;12.972;2023-06-10T15:29:54;22.80;93.40
10390;DHT22;5241;47.830;12.972;2023-06-10T15:32:19;22.60;93.90
10390;DHT22;5241;47.830;12.972;2023-06-10T15:34:45;22.50;93.70